Shenandoah National Park, VA

3:46 AM EDT on October 24, 2014 (GMT -0400)
Culpeper Regional | Change Station
CLOSE
Current Station
Airport
Location: Culpeper,
Elevation: 312 ft
Nearby Weather Stations

Elev 312 ft 38.53 °N, 77.86 °W | Updated 11 minutes ago

Clear
Clear
57 °F
Feels Like 57 °F
N
7
Wind Variable Wind from NW

Today
High -- | Low -- °F
--% Chance of Precip.
Yesterday
High -- | Low -- °F
Precip. -- in
7:29 AM 6:21 PM
New Moon, 0% visible
Pressure 29.95 in
Visibility 10.0 miles
Clouds Clear
Dew Point 43 °F
Humidity 59%
Rainfall 0.00 in
Snow Depth Not available.
UV 0 out of 12
Pollen 2.50 out of 12
Air Quality Not available.
Flu Activity Local Activity
METAR KCJR 240735Z AUTO 32006KT 10SM CLR 14/06 A2995 RMK AO2

More Conditions Fewer Conditions

Pressure 29.95 in
Visibility 10.0 miles
Clouds Clear
Dew Point 43 °F
Humidity 59%
Rainfall 0.00 in
Snow Depth Not available.
UV 0 out of 12
Pollen 2.50 out of 12
Air Quality Not available.
Flu Activity Local Activity
METAR KCJR 240735Z AUTO 32006KT 10SM CLR 14/06 A2995 RMK AO2

More Conditions Fewer Conditions

10-Day Weather Forecast

Almanac

Astronomy

Oct. 24, 2014 Rise Set
Actual Time 7:29 AM EDT 6:21 PM EDT
Civil Twilight 7:02 AM EDT 6:48 PM EDT
Nautical Twilight 6:31 AM EDT 7:19 PM EDT
Astronomical Twilight 6:00 AM EDT 7:50 PM EDT
Moon 8:06 AM EDT 7:00 PM EDT
Length of Visible Light 11h 45m
Length of Day
10h 51m
Tomorrow will be 2m 18s shorter.
New Moon, 0% of the Moon is Illuminated
Today
New Moon
Oct 30
First Quarter
Nov 6
Full
Nov 14
Last Quarter
Nov 22
New

Today's Extremes

State Highs State Lows

Community

WunderPhotos

Upload Photos

1,764,512 photos uploaded!

WunderBlogs® & News

Nearby

Snow Depth

Station Depth Elevation
No new snow has been reported.

Earthquake Activity

City Distance Mag. Time & Date
No recent earthquake activity has been reported nearby.
Minimum magnitude displayed is 2.5.

Coastal Water Temperatures

Place Temperature
No Stations Reporting

Nearby Weather Stations